METAR AND TAF INFORMATION
METAR FOR LEGR
ADDS - METARS form results

(0405 UTC 30 June 2022)
Data provider http://aviationweather.gov/metar/data/
 
METAR text: LEGR 300400Z 00000KT CAVOK 17/06 Q1014
Conditions at: LEGR (GRANADA AIRPORT , ES) observed 0400 UTC 30 June 2022
Temperature: 17.0°C (63°F)
Dewpoint: 6.0°C (43°F) [RH = 48%]
Pressure (altimeter): 29.94 inches Hg (1014.0 mb)
Winds: calm
Visibility: 6 or more miles (10+ km)
Ceiling: ceiling and visibility are OK
Clouds: unknown
Weather: no significant weather observed at this time

METAR text: LEGR 300330Z AUTO VRB01KT CAVOK 17/06 Q1014
Conditions at: LEGR (GRANADA AIRPORT , ES) observed 0330 UTC 30 June 2022
Temperature: 17.0°C (63°F)
Dewpoint: 6.0°C (43°F) [RH = 48%]
Pressure (altimeter): 29.94 inches Hg (1014.0 mb)
Winds: variable direction winds at 1 MPH (1 knots; 0.5 m/s)
Visibility: 6 or more miles (10+ km)
Ceiling: ceiling and visibility are OK
Clouds: unknown
Weather: no significant weather observed at this time

Forecast for: LEGR (GRANADA AIRPORT , ES)
Text: TAF LEGR 292300Z 3000/3024 VRB02KT CAVOK TX35/3015Z TN15/3005Z
Forecast period: 0000 to 1100 UTC 30 June 2022
Forecast type: FROM: standard forecast or significant change
Winds: variable direction winds at 2 MPH (2 knots; 1.0 m/s)
Visibility: 6 or more miles (10+ km)
Ceiling: unknown
Clouds: missing
Weather: no significant weather forecast for this period
Text: BECMG 3011/3013 27010KT
Forecast period: 1100 UTC 30 June 2022 to 0000 UTC 01 July 2022
Forecast type: BECOMING: Conditions expected to become as follows by 1300 UTC 30 June 2022
Winds: from the W (270 degrees) at 12 MPH (10 knots; 5.1 m/s)
Visibility: 6 or more miles (10+ km)
Ceiling: unknown
Clouds: missing
Weather: no significant weather forecast for this period

 AIRPORT MAP

 RUNWAY INFORMATION
Runway 09 Runway length 9514 ft Runway width 148 ft
Runway elevation 1842 ft Runway displaced threshold 0 ft Runway heading 90
Runway 27 Runway length 9514 ft Runway width 148 ft
Runway elevation 1860 ft Runway displaced threshold 0 ft Runway heading 270

 AIRPORT FREQUENCIES
Type GND Name GND Frequency 121.7 MHZ
Type TWR Name TWR Frequency 118.85 MHZ

 AIRPORT NEAR NAVIGATION AIDS
Type VOR-DME Name Granada Frequency 113400 KHZ





Powered by Virtual Airlines Manager

Maps by Rafael Santos